createdAt,value
2018-08-20T00:00:19.595Z,9.87
2018-08-20T00:02:48.089Z,12.07
2018-08-20T00:05:30.902Z,9.00
2018-08-20T00:08:17.778Z,11.70
2018-08-20T00:10:59.290Z,13.17
2018-08-20T00:13:46.102Z,10.90
2018-08-20T00:16:20.096Z,10.90
2018-08-20T00:18:49.686Z,13.03
2018-08-20T00:21:18.378Z,11.13
2018-08-20T00:23:47.058Z,9.27
2018-08-20T00:26:36.014Z,7.90
2018-08-20T00:29:09.614Z,9.17
2018-08-20T00:31:40.163Z,7.97
2018-08-20T00:34:08.851Z,10.97
2018-08-20T00:36:37.530Z,9.40
2018-08-20T00:39:08.958Z,12.60
2018-08-20T00:41:39.481Z,9.77
2018-08-20T00:44:10.957Z,8.70
2018-08-20T00:46:39.793Z,8.20
2018-08-20T00:49:08.324Z,9.83
2018-08-20T00:51:46.384Z,10.30
2018-08-20T00:54:27.242Z,9.67
2018-08-20T00:56:56.794Z,7.60
2018-08-20T00:59:25.161Z,9.00
2018-08-20T01:01:56.004Z,7.00
2018-08-20T01:04:24.386Z,10.77
2018-08-20T01:06:58.990Z,11.20
2018-08-20T01:09:29.584Z,9.93
2018-08-20T01:12:11.408Z,13.23
2018-08-20T01:14:46.786Z,9.37
2018-08-20T01:17:21.780Z,12.00
2018-08-20T01:19:56.204Z,10.33
2018-08-20T01:22:30.422Z,11.47
2018-08-20T01:24:59.100Z,11.03
2018-08-20T01:27:30.288Z,12.50
2018-08-20T01:29:58.868Z,12.23
2018-08-20T01:32:27.322Z,13.97
2018-08-20T01:35:05.064Z,13.90
2018-08-20T01:37:34.554Z,15.30
2018-08-20T01:40:06.876Z,11.10
2018-08-20T01:42:35.669Z,11.80
2018-08-20T01:45:16.036Z,14.87
2018-08-20T01:47:46.519Z,11.77
2018-08-20T01:50:15.217Z,13.37
2018-08-20T01:52:55.203Z,14.87
2018-08-20T01:55:31.331Z,13.17
2018-08-20T01:58:04.291Z,13.07
2018-08-20T02:00:49.463Z,11.23
2018-08-20T02:03:17.941Z,10.17
2018-08-20T02:05:46.573Z,11.43
2018-08-20T02:08:26.709Z,10.87
2018-08-20T02:10:58.736Z,10.37
2018-08-20T02:13:27.398Z,11.63
2018-08-20T02:15:57.947Z,9.43
2018-08-20T02:18:26.618Z,8.17
2018-08-20T02:20:55.331Z,12.20
2018-08-20T02:23:24.973Z,8.50
2018-08-20T02:25:55.468Z,11.33
2018-08-20T02:28:24.123Z,10.27
2018-08-20T02:31:01.143Z,11.07
2018-08-20T02:33:38.049Z,9.60
2018-08-20T02:36:07.839Z,11.33
2018-08-20T02:38:38.504Z,12.27
2018-08-20T02:41:11.507Z,9.10
2018-08-20T02:46:43.879Z,8.87
2018-08-20T02:49:15.225Z,11.00
2018-08-20T02:54:41.984Z,9.20
2018-08-20T02:57:21.655Z,10.53
2018-08-20T02:59:50.044Z,9.53
2018-08-20T03:02:31.710Z,11.63
2018-08-20T03:07:58.367Z,10.47
2018-08-20T03:10:32.507Z,9.60
2018-08-20T03:15:59.309Z,7.90
2018-08-20T03:18:31.085Z,10.43
2018-08-20T03:21:15.350Z,9.80
2018-08-20T03:23:45.985Z,8.97
2018-08-20T03:26:15.605Z,9.60
2018-08-20T03:28:53.760Z,10.03
2018-08-20T03:31:32.543Z,9.53
2018-08-20T03:34:00.968Z,10.23
2018-08-20T03:36:35.244Z,9.17
2018-08-20T03:39:07.434Z,10.97
2018-08-20T03:41:48.237Z,11.47
2018-08-20T03:44:18.726Z,10.67
2018-08-20T03:46:48.442Z,12.10
2018-08-20T03:49:22.936Z,9.30
2018-08-20T03:51:52.463Z,10.33
2018-08-20T03:54:22.141Z,9.90
2018-08-20T03:56:50.911Z,9.83
2018-08-20T03:59:33.827Z,9.70
2018-08-20T04:02:08.000Z,11.70
2018-08-20T04:04:59.887Z,9.40
2018-08-20T04:07:29.509Z,13.10
2018-08-20T04:10:02.452Z,12.20
2018-08-20T04:12:36.774Z,10.60
2018-08-20T04:15:06.416Z,11.17
2018-08-20T04:17:43.810Z,13.33
2018-08-20T04:20:12.861Z,14.80
2018-08-20T04:22:45.664Z,11.13
2018-08-20T04:25:22.618Z,12.07
2018-08-20T04:27:51.778Z,13.60
2018-08-20T04:30:23.625Z,12.10
2018-08-20T04:32:56.076Z,9.50
2018-08-20T04:35:25.080Z,13.93
2018-08-20T04:38:00.016Z,11.03
2018-08-20T04:40:29.782Z,13.00
2018-08-20T04:42:58.725Z,14.20
2018-08-20T04:45:27.992Z,17.50
2018-08-20T04:47:57.971Z,15.80
2018-08-20T04:50:30.772Z,13.27
2018-08-20T04:53:00.574Z,18.47
2018-08-20T04:55:29.764Z,20.37
2018-08-20T04:57:59.667Z,22.40
2018-08-20T05:00:28.308Z,20.33
2018-08-20T05:02:57.025Z,20.07
2018-08-20T05:05:25.646Z,18.47
2018-08-20T05:07:56.604Z,22.80
2018-08-20T05:10:25.206Z,20.63
2018-08-20T05:12:53.905Z,23.00
2018-08-20T05:15:40.247Z,19.90
2018-08-20T05:18:19.169Z,19.70
2018-08-20T05:20:49.534Z,26.30
2018-08-20T05:23:19.486Z,26.63
2018-08-20T05:25:52.985Z,29.20
2018-08-20T05:28:24.659Z,29.13
2018-08-20T05:30:57.572Z,29.73
2018-08-20T05:33:37.425Z,29.50
2018-08-20T05:36:07.981Z,26.63
2018-08-20T05:38:36.630Z,33.30
2018-08-20T05:41:05.338Z,25.53
2018-08-20T05:43:49.203Z,37.70
2018-08-20T05:46:25.001Z,37.63
2018-08-20T05:48:55.751Z,32.00
2018-08-20T05:51:25.429Z,35.67
2018-08-20T05:54:10.829Z,34.23
2018-08-20T05:56:41.473Z,38.03
2018-08-20T05:59:17.350Z,33.13
2018-08-20T06:01:51.077Z,39.07
2018-08-20T06:04:20.515Z,35.93
2018-08-20T06:06:54.489Z,41.07
2018-08-20T06:09:23.257Z,35.90
2018-08-20T06:11:58.492Z,39.53
2018-08-20T06:14:29.442Z,46.63
2018-08-20T06:16:59.171Z,38.07
2018-08-20T06:19:27.839Z,40.37
2018-08-20T06:22:07.380Z,40.23
2018-08-20T06:24:47.315Z,45.07
2018-08-20T06:27:30.328Z,39.53
2018-08-20T06:30:14.555Z,39.70
2018-08-20T06:32:45.611Z,38.93
2018-08-20T06:35:15.821Z,37.40
2018-08-20T06:37:51.312Z,45.23
2018-08-20T06:40:26.966Z,40.60
2018-08-20T06:43:01.529Z,44.27
2018-08-20T06:45:30.182Z,40.63
2018-08-20T06:47:58.787Z,38.07
2018-08-20T06:50:29.858Z,41.97
2018-08-20T06:52:58.313Z,46.33
2018-08-20T06:55:34.984Z,42.07
2018-08-20T06:58:05.167Z,46.37
2018-08-20T07:00:40.734Z,43.93
2018-08-20T07:03:09.626Z,45.90
2018-08-20T07:05:59.050Z,47.70
2018-08-20T07:14:31.390Z,41.80
2018-08-20T07:17:01.090Z,42.07
2018-08-20T07:19:43.594Z,50.63
2018-08-20T07:22:13.447Z,37.57
2018-08-20T07:24:52.921Z,35.63
2018-08-20T07:27:26.264Z,44.23
2018-08-20T07:29:56.880Z,40.10
2018-08-20T07:32:43.555Z,45.47
2018-08-20T07:35:23.315Z,41.10
2018-08-20T07:37:57.899Z,44.67
2018-08-20T07:40:26.585Z,45.57
2018-08-20T07:42:56.190Z,47.53
2018-08-20T07:45:25.835Z,45.23
2018-08-20T07:47:54.523Z,43.63
2018-08-20T07:50:43.052Z,46.37
2018-08-20T07:53:15.164Z,47.80
2018-08-20T07:55:49.249Z,40.53
2018-08-20T07:58:21.369Z,39.10
2018-08-20T08:00:54.386Z,44.50
2018-08-20T08:03:31.666Z,41.90
2018-08-20T08:06:18.417Z,44.37
2018-08-20T08:08:48.968Z,37.87
2018-08-20T08:11:17.705Z,40.53
2018-08-20T08:13:47.311Z,37.47
2018-08-20T08:16:15.821Z,31.77
2018-08-20T08:18:45.574Z,33.33
2018-08-20T08:21:21.370Z,35.77
2018-08-20T08:23:50.944Z,36.53
2018-08-20T08:26:30.773Z,33.60
2018-08-20T08:28:59.330Z,36.30
2018-08-20T08:31:34.467Z,36.27
2018-08-20T08:34:02.929Z,38.90
2018-08-20T08:36:31.647Z,35.17
2018-08-20T08:39:01.143Z,37.20
2018-08-20T08:41:29.598Z,30.27
2018-08-20T08:44:16.977Z,31.93
2018-08-20T08:46:49.109Z,34.47
2018-08-20T08:49:30.611Z,33.27
2018-08-20T08:51:59.114Z,34.57
2018-08-20T08:54:31.925Z,33.93
2018-08-20T08:57:00.799Z,37.80
2018-08-20T08:59:29.661Z,32.77
2018-08-20T09:01:58.371Z,28.20
2018-08-20T09:04:27.324Z,29.97
2018-08-20T09:06:55.908Z,30.93
2018-08-20T09:09:24.528Z,31.40
2018-08-20T09:11:54.975Z,27.47
2018-08-20T09:14:26.151Z,27.73
2018-08-20T09:16:59.567Z,26.63
2018-08-20T09:19:39.709Z,27.50
2018-08-20T09:22:08.687Z,25.50
2018-08-20T09:24:46.072Z,42.17
2018-08-20T09:27:16.784Z,31.93
2018-08-20T09:29:45.413Z,22.70
2018-08-20T09:32:18.923Z,22.60
2018-08-20T09:34:56.587Z,23.90
2018-08-20T09:37:31.323Z,24.07
2018-08-20T09:40:00.179Z,22.43
2018-08-20T09:42:29.220Z,24.37
2018-08-20T09:44:59.123Z,24.43
2018-08-20T09:47:29.111Z,26.37
2018-08-20T09:49:58.371Z,22.43
2018-08-20T09:52:26.983Z,26.27
2018-08-20T09:54:55.710Z,17.27
2018-08-20T09:57:25.829Z,19.90
2018-08-20T09:59:54.474Z,17.47
2018-08-20T10:02:25.367Z,16.50
2018-08-20T10:04:56.552Z,13.27
2018-08-20T10:07:25.191Z,13.97
2018-08-20T10:09:59.291Z,10.73
2018-08-20T10:12:28.835Z,15.87
2018-08-20T10:14:57.610Z,15.10
2018-08-20T10:17:26.331Z,6.63
2018-08-20T10:19:55.014Z,6.87
2018-08-20T10:22:24.635Z,8.33
2018-08-20T10:24:54.076Z,8.83
2018-08-20T10:27:22.584Z,7.60
2018-08-20T10:29:51.262Z,6.13
2018-08-20T10:32:20.056Z,7.57
2018-08-20T10:34:48.881Z,6.90
2018-08-20T10:37:17.430Z,7.23
2018-08-20T10:39:46.216Z,5.90
2018-08-20T10:42:14.848Z,8.70
2018-08-20T10:44:54.498Z,5.47
2018-08-20T10:47:25.083Z,5.23
2018-08-20T10:49:53.956Z,6.70
2018-08-20T10:52:22.970Z,6.57
2018-08-20T10:54:56.302Z,6.20
2018-08-20T10:57:27.409Z,5.63
2018-08-20T10:59:56.340Z,7.73
2018-08-20T11:02:26.186Z,6.20
2018-08-20T11:04:55.861Z,4.93
2018-08-20T11:07:24.905Z,4.43
2018-08-20T11:10:00.197Z,5.13
2018-08-20T11:12:35.097Z,6.07
2018-08-20T11:15:05.688Z,6.70
2018-08-20T11:17:34.743Z,5.20
2018-08-20T11:20:05.398Z,5.87
2018-08-20T11:22:34.144Z,8.47
2018-08-20T11:25:03.998Z,9.20
2018-08-20T11:27:33.637Z,8.20
2018-08-20T11:30:02.230Z,11.10
2018-08-20T11:32:31.784Z,9.43
2018-08-20T11:35:04.900Z,12.20
2018-08-20T11:37:37.402Z,8.70
2018-08-20T11:40:10.122Z,10.37
2018-08-20T11:42:38.917Z,11.63
2018-08-20T11:45:14.472Z,11.33
2018-08-20T11:47:45.050Z,12.00
2018-08-20T11:50:18.143Z,11.67
2018-08-20T11:52:49.594Z,15.33
2018-08-20T11:55:19.249Z,11.60
2018-08-20T11:57:54.564Z,14.33
2018-08-20T12:00:24.179Z,13.80
2018-08-20T12:02:53.857Z,11.73
2018-08-20T12:05:28.108Z,12.20
2018-08-20T12:07:56.751Z,12.00
2018-08-20T12:10:26.511Z,14.30
2018-08-20T12:13:00.501Z,11.87
2018-08-20T12:15:34.985Z,11.37
2018-08-20T12:18:09.301Z,11.07
2018-08-20T12:20:45.603Z,13.57
2018-08-20T12:23:19.317Z,12.53
2018-08-20T12:25:53.253Z,12.67
2018-08-20T12:28:35.307Z,13.83
2018-08-20T12:31:09.001Z,12.83
2018-08-20T12:33:38.835Z,12.83
2018-08-20T12:36:08.693Z,9.37
2018-08-20T12:38:38.415Z,10.17
2018-08-20T12:41:11.387Z,10.33
2018-08-20T12:43:56.003Z,10.17
2018-08-20T12:46:29.938Z,12.87
2018-08-20T12:49:05.405Z,11.53
2018-08-20T12:51:38.395Z,16.07
2018-08-20T12:54:07.064Z,11.07
2018-08-20T12:56:35.726Z,12.20
2018-08-20T12:59:04.165Z,13.50
2018-08-20T13:01:33.542Z,11.60
2018-08-20T13:04:02.189Z,12.47
2018-08-20T13:06:34.528Z,10.80
2018-08-20T13:09:04.290Z,9.87
2018-08-20T13:11:33.718Z,8.70
2018-08-20T13:14:03.521Z,9.10
2018-08-20T13:16:32.003Z,10.40
2018-08-20T13:19:04.131Z,10.90
2018-08-20T13:21:44.415Z,11.77
2018-08-20T13:24:19.913Z,9.27
2018-08-20T13:26:52.360Z,9.23
2018-08-20T13:29:23.977Z,9.07
2018-08-20T13:31:57.685Z,10.40
2018-08-20T13:34:27.448Z,9.27
2018-08-20T13:36:57.298Z,8.67
2018-08-20T13:39:31.433Z,10.30
2018-08-20T13:42:00.662Z,9.00
2018-08-20T13:44:29.530Z,11.00
2018-08-20T13:46:58.044Z,7.70
2018-08-20T13:49:43.919Z,7.63
2018-08-20T13:52:12.634Z,6.23
2018-08-20T13:54:41.795Z,7.47
2018-08-20T13:57:12.508Z,8.33
2018-08-20T13:59:41.240Z,8.50
2018-08-20T14:05:05.933Z,6.40
2018-08-20T14:07:39.213Z,6.37
2018-08-20T14:10:15.728Z,5.87
2018-08-20T14:12:51.979Z,8.40
2018-08-20T14:15:41.228Z,6.70
2018-08-20T14:18:13.616Z,5.50
2018-08-20T14:21:18.365Z,5.33
2018-08-20T14:23:52.366Z,5.47
2018-08-20T14:26:24.724Z,4.70
2018-08-20T14:28:53.136Z,5.70
2018-08-20T14:31:27.426Z,7.40
2018-08-20T14:34:12.023Z,6.97
2018-08-20T14:39:38.697Z,12.07
2018-08-20T14:42:14.598Z,6.83
2018-08-20T14:44:44.289Z,6.83
2018-08-20T14:47:16.057Z,6.27
2018-08-20T14:49:45.638Z,5.93
2018-08-20T14:52:17.738Z,6.70
2018-08-20T14:54:58.314Z,8.97
2018-08-20T14:57:28.101Z,6.07
2018-08-20T14:59:57.751Z,6.37
2018-08-20T15:02:31.149Z,5.63
2018-08-20T15:05:05.092Z,7.00
2018-08-20T15:07:41.187Z,8.63
2018-08-20T15:10:21.697Z,6.50
2018-08-20T15:13:09.439Z,7.23
2018-08-20T15:15:38.163Z,6.67
2018-08-20T15:18:11.087Z,5.87
2018-08-20T15:20:43.705Z,5.77
2018-08-20T15:23:12.410Z,4.40
2018-08-20T15:25:41.159Z,5.87
2018-08-20T15:28:18.141Z,4.60
2018-08-20T15:30:47.540Z,5.70
2018-08-20T15:33:21.345Z,6.10
2018-08-20T15:35:50.095Z,5.73
2018-08-20T15:38:20.649Z,5.10
2018-08-20T15:40:52.423Z,4.87
2018-08-20T15:43:33.054Z,5.63
2018-08-20T15:46:14.047Z,5.13
2018-08-20T15:48:42.822Z,4.50
2018-08-20T15:51:14.836Z,4.40
2018-08-20T15:56:41.374Z,4.93
2018-08-20T15:59:13.746Z,6.20
2018-08-20T16:01:46.779Z,6.57
2018-08-20T16:04:15.543Z,5.83
2018-08-20T16:06:45.136Z,5.07
2018-08-20T16:09:14.694Z,7.87
2018-08-20T16:12:00.951Z,7.37
2018-08-20T16:14:31.361Z,6.37
2018-08-20T16:17:04.294Z,7.60
2018-08-20T16:19:38.485Z,7.83
2018-08-20T16:22:26.916Z,8.23
2018-08-20T16:27:52.367Z,7.97
2018-08-20T16:30:40.627Z,7.87
2018-08-20T16:33:10.157Z,7.47
2018-08-20T16:38:35.575Z,7.73
2018-08-20T16:41:04.447Z,8.50
2018-08-20T16:43:33.841Z,7.73
2018-08-20T16:46:07.923Z,6.47
2018-08-20T16:48:37.523Z,6.50
2018-08-20T16:51:08.286Z,8.77
2018-08-20T16:53:42.445Z,8.00
2018-08-20T16:56:16.790Z,8.13
2018-08-20T16:58:48.308Z,7.03
2018-08-20T17:01:28.493Z,6.57
2018-08-20T17:04:01.225Z,8.10
2018-08-20T17:06:46.085Z,8.93
2018-08-20T17:09:14.513Z,8.80
2018-08-20T17:11:46.879Z,7.50
2018-08-20T17:14:20.219Z,9.90
2018-08-20T17:16:49.776Z,8.07
2018-08-20T17:19:20.297Z,8.73
2018-08-20T17:22:02.489Z,9.97
2018-08-20T17:24:36.555Z,8.07
2018-08-20T17:27:15.899Z,7.63
2018-08-20T17:29:56.456Z,10.13
2018-08-20T17:32:38.082Z,7.10
2018-08-20T17:35:13.215Z,6.87
2018-08-20T17:37:43.546Z,9.13
2018-08-20T17:40:20.121Z,7.53
2018-08-20T17:42:55.891Z,8.47
2018-08-20T17:45:24.583Z,7.90
2018-08-20T17:47:56.945Z,8.53
2018-08-20T17:50:39.439Z,9.20
2018-08-20T17:53:18.315Z,12.20
2018-08-20T17:55:47.039Z,12.43
2018-08-20T17:58:15.741Z,12.03
2018-08-20T18:00:50.725Z,11.13
2018-08-20T18:03:26.640Z,9.90
2018-08-20T18:05:59.405Z,14.67
2018-08-20T18:08:34.518Z,8.67
2018-08-20T18:11:03.927Z,9.67
2018-08-20T18:13:42.611Z,10.00
2018-08-20T18:16:17.925Z,11.33
2018-08-20T18:18:49.527Z,13.97
2018-08-20T18:21:20.138Z,10.07
2018-08-20T18:23:52.276Z,9.83
2018-08-20T18:26:27.440Z,9.10
2018-08-20T18:29:01.373Z,11.93
2018-08-20T18:31:31.054Z,11.07
2018-08-20T18:34:05.824Z,9.53
2018-08-20T18:36:41.851Z,12.27
2018-08-20T18:39:12.645Z,25.73
2018-08-20T18:42:16.703Z,10.40
2018-08-20T18:44:50.082Z,10.07
2018-08-20T18:47:19.210Z,13.70
2018-08-20T18:49:56.293Z,11.00
2018-08-20T18:52:30.197Z,12.00
2018-08-20T18:55:01.104Z,11.80
2018-08-20T18:57:35.227Z,10.47
2018-08-20T19:00:05.739Z,11.63
2018-08-20T19:02:56.856Z,11.37
2018-08-20T19:05:26.546Z,19.23
2018-08-20T19:08:05.635Z,11.93
2018-08-20T19:10:39.873Z,12.73
2018-08-20T19:13:08.821Z,15.23
2018-08-20T19:15:44.872Z,12.80
2018-08-20T19:18:23.366Z,13.17
2018-08-20T19:20:52.021Z,12.23
2018-08-20T19:23:24.476Z,10.20
2018-08-20T19:25:55.465Z,12.30
2018-08-20T19:28:25.143Z,16.83
2018-08-20T19:30:55.565Z,11.10
2018-08-20T19:33:29.560Z,10.90
2018-08-20T19:36:04.243Z,12.13
2018-08-20T19:38:33.243Z,11.50
2018-08-20T19:41:08.756Z,12.33
2018-08-20T19:43:41.839Z,12.50
2018-08-20T19:46:10.919Z,11.23
2018-08-20T19:48:43.306Z,13.53
2018-08-20T19:51:16.463Z,12.83
2018-08-20T19:53:50.766Z,10.87
2018-08-20T19:56:40.142Z,12.77
2018-08-20T19:59:18.355Z,9.97
2018-08-20T20:01:48.156Z,10.93
2018-08-20T20:04:17.549Z,13.67
2018-08-20T20:06:51.115Z,10.73
2018-08-20T20:09:20.508Z,11.70
2018-08-20T20:11:51.099Z,15.67
2018-08-20T20:14:22.249Z,10.67
2018-08-20T20:16:52.493Z,10.63
2018-08-20T20:19:23.242Z,11.07
2018-08-20T20:21:55.516Z,10.40
2018-08-20T20:24:28.246Z,9.77
2018-08-20T20:27:00.479Z,11.97
2018-08-20T20:29:39.682Z,14.73
2018-08-20T20:32:08.343Z,11.43
2018-08-20T20:34:42.520Z,16.27
2018-08-20T20:37:15.769Z,12.03
2018-08-20T20:40:02.771Z,15.97
2018-08-20T20:42:33.739Z,11.60
2018-08-20T20:45:07.470Z,11.80
2018-08-20T20:47:36.595Z,11.53
2018-08-20T20:50:08.475Z,15.80
2018-08-20T20:52:37.222Z,12.47
2018-08-20T20:55:07.983Z,12.93
2018-08-20T20:57:36.742Z,13.00
2018-08-20T21:00:27.931Z,11.80
2018-08-20T21:03:04.036Z,10.87
2018-08-20T21:08:39.305Z,14.20
2018-08-20T21:14:19.495Z,10.80
2018-08-20T21:16:59.867Z,13.60
2018-08-20T21:19:33.546Z,13.60
2018-08-20T21:22:14.212Z,10.50
2018-08-20T21:25:00.877Z,14.63
2018-08-20T21:27:39.556Z,9.97
2018-08-20T21:39:04.887Z,10.10
2018-08-20T21:41:47.255Z,9.60
2018-08-20T21:47:23.505Z,9.70
2018-08-20T21:49:57.198Z,7.77
2018-08-20T21:52:40.343Z,10.80
2018-08-20T21:58:12.201Z,7.33
2018-08-20T22:00:56.943Z,9.83
2018-08-20T22:03:40.195Z,8.00
2018-08-20T22:06:15.568Z,9.37
2018-08-20T22:08:46.739Z,6.77
2018-08-20T22:11:27.548Z,7.37
2018-08-20T22:17:29.636Z,5.53
2018-08-20T22:20:02.249Z,4.13
2018-08-20T22:22:39.132Z,6.63
2018-08-20T22:25:10.526Z,4.40
2018-08-20T22:27:54.811Z,9.43
2018-08-20T22:30:35.356Z,4.47
2018-08-20T22:33:14.363Z,10.23
2018-08-20T22:35:48.547Z,4.80
2018-08-20T22:38:18.310Z,5.30
2018-08-20T22:40:49.510Z,4.80
2018-08-20T22:43:20.147Z,3.90
2018-08-20T22:45:56.925Z,4.60
2018-08-20T22:48:30.235Z,4.60
2018-08-20T22:51:16.924Z,4.33
2018-08-20T22:53:48.230Z,6.13
2018-08-20T22:56:26.076Z,4.90
2018-08-20T22:59:00.328Z,5.40
2018-08-20T23:01:34.887Z,3.73
2018-08-20T23:04:08.905Z,4.03
2018-08-20T23:06:56.835Z,5.93
2018-08-20T23:09:30.173Z,5.13
2018-08-20T23:12:00.087Z,6.20
2018-08-20T23:14:34.582Z,6.87
2018-08-20T23:17:03.995Z,4.77
2018-08-20T23:19:33.620Z,7.00
2018-08-20T23:22:05.998Z,4.57
2018-08-20T23:24:36.047Z,5.30
2018-08-20T23:27:10.829Z,5.07
2018-08-20T23:29:43.358Z,4.50
2018-08-20T23:32:19.062Z,5.70
2018-08-20T23:34:58.600Z,6.60
2018-08-20T23:37:33.707Z,7.03
2018-08-20T23:40:19.839Z,5.80
2018-08-20T23:43:03.696Z,5.53
2018-08-20T23:45:38.788Z,5.87
2018-08-20T23:48:17.572Z,7.57
2018-08-20T23:51:09.750Z,5.23
2018-08-20T23:53:50.883Z,6.73
2018-08-20T23:56:25.680Z,7.43
2018-08-20T23:58:56.532Z,6.07
